createdAt,value
2022-08-07T00:00:40.110Z,12.66
2022-08-07T00:05:41.931Z,12.62
2022-08-07T00:10:48.384Z,12.57
2022-08-07T00:15:59.315Z,12.50
2022-08-07T00:21:08.167Z,12.38
2022-08-07T00:26:49.389Z,12.28
2022-08-07T00:31:50.062Z,12.23
2022-08-07T00:36:53.270Z,12.16
2022-08-07T00:42:02.211Z,12.14
2022-08-07T00:47:15.573Z,12.00
2022-08-07T00:52:29.015Z,11.94
2022-08-07T00:57:34.939Z,11.78
2022-08-07T01:02:36.695Z,11.68
2022-08-07T01:07:41.315Z,11.61
2022-08-07T01:12:53.516Z,11.71
2022-08-07T01:17:56.380Z,11.49
2022-08-07T01:23:12.718Z,11.36
2022-08-07T01:28:15.009Z,11.35
2022-08-07T01:33:17.212Z,11.33
2022-08-07T01:38:25.241Z,11.11
2022-08-07T01:43:34.734Z,11.26
2022-08-07T01:48:46.844Z,11.17
2022-08-07T01:54:08.441Z,11.15
2022-08-07T01:59:24.653Z,11.18
2022-08-07T02:04:56.148Z,11.06
2022-08-07T02:10:00.764Z,11.20
2022-08-07T02:15:06.687Z,10.85
2022-08-07T02:20:17.111Z,10.71
2022-08-07T02:26:10.921Z,10.57
2022-08-07T02:30:46.316Z,10.46
2022-08-07T02:36:26.796Z,10.54
2022-08-07T02:41:13.895Z,10.50
2022-08-07T02:46:26.006Z,10.56
2022-08-07T02:51:49.726Z,10.50
2022-08-07T02:56:56.213Z,10.44
2022-08-07T03:02:01.321Z,10.35
2022-08-07T03:07:10.452Z,10.48
2022-08-07T03:12:21.691Z,10.37
2022-08-07T03:17:24.079Z,10.34
2022-08-07T03:22:30.322Z,10.18
2022-08-07T03:27:58.788Z,10.04
2022-08-07T03:32:59.244Z,10.03
2022-08-07T03:38:07.199Z,9.90
2022-08-07T03:43:14.426Z,10.06
2022-08-07T03:48:16.683Z,9.97
2022-08-07T03:53:18.383Z,9.88
2022-08-07T03:59:08.167Z,9.81
2022-08-07T04:03:55.513Z,9.86
2022-08-07T04:08:57.693Z,9.70
2022-08-07T04:14:10.137Z,9.53
2022-08-07T04:19:25.429Z,9.63
2022-08-07T04:24:48.771Z,9.69
2022-08-07T04:30:01.565Z,9.76
2022-08-07T04:35:05.963Z,9.71
2022-08-07T04:40:08.307Z,9.83
2022-08-07T04:45:11.859Z,9.88
2022-08-07T04:50:42.765Z,9.88
2022-08-07T04:58:15.190Z,10.12
2022-08-07T05:01:50.620Z,10.23
2022-08-07T05:07:20.409Z,10.32
2022-08-07T05:12:30.528Z,10.49
2022-08-07T05:17:52.390Z,10.72
2022-08-07T05:22:58.370Z,11.10
2022-08-07T05:28:03.087Z,11.19
2022-08-07T05:33:22.418Z,11.41
2022-08-07T05:38:58.255Z,11.49
2022-08-07T05:44:11.941Z,11.68
2022-08-07T05:49:14.586Z,11.96
2022-08-07T05:54:30.708Z,12.17
2022-08-07T05:59:56.098Z,12.34
2022-08-07T06:05:05.999Z,12.66
2022-08-07T06:10:15.086Z,12.98
2022-08-07T06:15:19.925Z,13.32
2022-08-07T06:20:31.643Z,13.82
2022-08-07T06:25:36.190Z,14.21
2022-08-07T06:30:42.646Z,14.42
2022-08-07T06:36:06.288Z,15.03
2022-08-07T06:41:15.838Z,15.26
2022-08-07T06:46:34.983Z,16.19
2022-08-07T06:51:49.620Z,16.17
2022-08-07T06:56:53.405Z,16.17
2022-08-07T07:01:58.633Z,16.39
2022-08-07T07:07:02.107Z,17.01
2022-08-07T07:12:35.423Z,17.13
2022-08-07T07:17:50.580Z,17.53
2022-08-07T07:24:10.287Z,18.33
2022-08-07T07:28:42.106Z,18.54
2022-08-07T07:33:56.524Z,18.76
2022-08-07T07:39:01.492Z,18.50
2022-08-07T07:44:18.079Z,18.77
2022-08-07T07:50:31.600Z,19.18
2022-08-07T07:54:52.114Z,19.50
2022-08-07T07:59:55.580Z,19.52
2022-08-07T08:04:57.486Z,19.49
2022-08-07T08:10:04.816Z,19.83
2022-08-07T08:15:08.083Z,19.82
2022-08-07T08:20:22.491Z,20.26
2022-08-07T08:25:51.084Z,20.48
2022-08-07T08:30:59.750Z,20.88
2022-08-07T08:36:03.571Z,20.80
2022-08-07T08:41:18.703Z,21.10
2022-08-07T08:46:44.772Z,20.86
2022-08-07T08:52:13.744Z,20.92
2022-08-07T08:57:35.416Z,21.55
2022-08-07T09:02:39.651Z,22.11
2022-08-07T09:08:24.088Z,21.83
2022-08-07T09:13:59.488Z,21.12
2022-08-07T09:19:53.707Z,21.46
2022-08-07T09:25:17.794Z,21.75
2022-08-07T09:30:20.709Z,22.16
2022-08-07T09:36:04.798Z,22.86
2022-08-07T09:41:58.332Z,22.28
2022-08-07T09:47:50.209Z,22.73
2022-08-07T09:52:48.549Z,23.35
2022-08-07T09:58:08.499Z,22.86
2022-08-07T10:04:05.251Z,24.36
2022-08-07T10:09:08.623Z,23.76
2022-08-07T10:14:23.131Z,24.22
2022-08-07T10:20:12.958Z,23.32
2022-08-07T10:25:42.278Z,24.11
2022-08-07T10:31:11.625Z,23.22
2022-08-07T10:36:29.631Z,24.77
2022-08-07T10:42:09.241Z,24.82
2022-08-07T10:47:53.626Z,24.11
2022-08-07T10:53:12.303Z,24.28
2022-08-07T10:58:33.318Z,24.80
2022-08-07T11:03:51.311Z,23.73
2022-08-07T11:09:12.927Z,25.51
2022-08-07T11:14:46.243Z,23.85
2022-08-07T11:20:22.432Z,24.16
2022-08-07T11:25:36.187Z,25.16
2022-08-07T11:31:08.835Z,26.15
2022-08-07T11:36:34.773Z,25.81
2022-08-07T11:42:02.157Z,25.46
2022-08-07T11:47:19.209Z,24.79
2022-08-07T11:52:41.788Z,24.73
2022-08-07T11:57:59.534Z,25.36
2022-08-07T12:03:44.406Z,24.70
2022-08-07T12:08:55.857Z,24.50
2022-08-07T12:14:08.702Z,24.71
2022-08-07T12:19:35.643Z,26.00
2022-08-07T12:26:22.316Z,24.56
2022-08-07T12:31:22.279Z,25.60
2022-08-07T12:36:33.588Z,25.05
2022-08-07T12:41:49.497Z,25.59
2022-08-07T12:47:08.726Z,25.62
2022-08-07T12:52:19.180Z,25.79
2022-08-07T12:57:29.901Z,25.85
2022-08-07T13:02:49.454Z,25.97
2022-08-07T13:08:23.260Z,25.90
2022-08-07T13:13:57.416Z,25.71
2022-08-07T13:19:45.637Z,25.94
2022-08-07T13:25:02.940Z,25.02
2022-08-07T13:30:19.714Z,26.40
2022-08-07T13:36:05.636Z,25.53
2022-08-07T13:41:48.527Z,25.76
2022-08-07T13:46:55.057Z,25.38
2022-08-07T13:52:22.766Z,25.34
2022-08-07T13:57:26.528Z,25.70
2022-08-07T14:02:51.171Z,24.81
2022-08-07T14:08:01.462Z,24.97
2022-08-07T14:13:06.180Z,24.74
2022-08-07T14:18:28.924Z,24.67
2022-08-07T14:24:00.282Z,24.51
2022-08-07T14:29:06.015Z,24.30
2022-08-07T14:34:29.728Z,24.33
2022-08-07T14:40:18.276Z,24.61
2022-08-07T14:50:27.950Z,24.37
2022-08-07T14:55:32.796Z,24.37
2022-08-07T15:00:35.170Z,24.10
2022-08-07T15:05:55.181Z,23.59
2022-08-07T15:11:15.043Z,23.48
2022-08-07T15:16:31.011Z,23.42
2022-08-07T15:21:59.616Z,23.52
2022-08-07T15:27:19.331Z,24.08
2022-08-07T15:43:55.926Z,23.56
2022-08-07T15:49:11.839Z,23.41
2022-08-07T15:54:15.897Z,23.60
2022-08-07T15:59:20.438Z,23.73
2022-08-07T16:04:44.131Z,23.14
2022-08-07T16:10:05.904Z,23.56
2022-08-07T16:15:57.842Z,23.01
2022-08-07T16:22:01.733Z,23.18
2022-08-07T16:26:30.524Z,23.19
2022-08-07T16:31:58.630Z,23.06
2022-08-07T16:38:03.725Z,22.93
2022-08-07T16:43:03.687Z,22.80
2022-08-07T16:48:15.705Z,22.89
2022-08-07T16:53:55.393Z,22.92
2022-08-07T16:59:11.026Z,22.72
2022-08-07T17:04:57.962Z,22.49
2022-08-07T17:10:32.634Z,22.94
2022-08-07T17:15:54.082Z,22.97
2022-08-07T17:21:01.152Z,22.93
2022-08-07T17:26:30.615Z,23.15
2022-08-07T17:32:03.145Z,22.83
2022-08-07T17:38:05.632Z,22.90
2022-08-07T17:43:17.744Z,22.96
2022-08-07T17:48:30.710Z,22.50
2022-08-07T17:54:02.026Z,22.42
2022-08-07T17:59:09.748Z,22.53
2022-08-07T18:04:35.113Z,22.44
2022-08-07T18:10:05.555Z,22.67
2022-08-07T18:15:08.586Z,21.80
2022-08-07T18:21:11.944Z,21.55
2022-08-07T18:25:44.877Z,21.17
2022-08-07T18:31:04.385Z,21.05
2022-08-07T18:36:14.455Z,20.98
2022-08-07T18:41:45.207Z,20.71
2022-08-07T18:47:11.311Z,20.50
2022-08-07T18:52:53.642Z,20.58
2022-08-07T18:58:19.778Z,20.20
2022-08-07T19:03:43.018Z,20.09
2022-08-07T19:08:56.573Z,19.85
2022-08-07T19:14:20.408Z,19.82
2022-08-07T19:19:46.584Z,19.53
2022-08-07T19:24:52.245Z,19.42
2022-08-07T19:31:01.227Z,19.07
2022-08-07T19:35:26.828Z,19.01
2022-08-07T19:40:36.662Z,18.80
2022-08-07T19:46:05.427Z,18.62
2022-08-07T19:51:19.910Z,18.46
2022-08-07T19:57:52.417Z,18.33
2022-08-07T20:01:57.408Z,18.13
2022-08-07T20:07:00.546Z,17.65
2022-08-07T20:12:31.716Z,17.68
2022-08-07T20:17:29.550Z,17.55
2022-08-07T20:22:34.743Z,17.43
2022-08-07T20:27:47.599Z,17.34
2022-08-07T20:32:59.919Z,17.09
2022-08-07T20:38:06.542Z,16.95
2022-08-07T20:43:14.619Z,16.84
2022-08-07T20:48:29.771Z,16.76
2022-08-07T20:54:02.220Z,16.59
2022-08-07T20:59:01.675Z,16.64
2022-08-07T21:04:22.055Z,16.44
2022-08-07T21:09:51.955Z,16.45
2022-08-07T21:14:57.030Z,16.31
2022-08-07T21:20:04.389Z,16.21
2022-08-07T21:25:38.634Z,16.07
2022-08-07T21:30:56.859Z,15.99
2022-08-07T21:36:11.795Z,15.90
2022-08-07T21:41:38.306Z,15.71
2022-08-07T21:47:01.315Z,15.60
2022-08-07T21:52:18.309Z,15.49
2022-08-07T21:58:01.529Z,15.34
2022-08-07T22:03:18.846Z,15.45
2022-08-07T22:08:51.761Z,15.42
2022-08-07T22:13:55.920Z,15.22
2022-08-07T22:19:18.038Z,15.14
2022-08-07T22:24:37.589Z,15.10
2022-08-07T22:29:50.947Z,14.92
2022-08-07T22:34:56.822Z,14.83
2022-08-07T22:40:10.515Z,14.69
2022-08-07T22:46:40.702Z,14.73
2022-08-07T22:50:55.649Z,14.59
2022-08-07T22:56:08.577Z,14.56
2022-08-07T23:01:49.430Z,14.37
2022-08-07T23:07:39.816Z,14.41
2022-08-07T23:12:51.896Z,14.27
2022-08-07T23:18:09.531Z,14.22
2022-08-07T23:24:06.528Z,14.16
2022-08-07T23:29:43.621Z,13.99
2022-08-07T23:35:37.713Z,13.93
2022-08-07T23:40:51.641Z,13.87
2022-08-07T23:46:23.804Z,13.67
2022-08-07T23:53:00.214Z,13.70
2022-08-07T23:57:05.075Z,13.74
